1976 Severe Tropical Cyclone DAVID (1976011S13177)


IBTrACS version v04r00. Visit IBTrACS website for data access.
Please direct all questions to the IBTrACS Q and A forum

Storm track - Intensity - Wind Radii - Intensity Data - Source Data - All data

Summary Information

Storm ID 1976011S13177
Start Jan 11 00Z
Landfall Jan 19 15Z
Max Intensity 85 kt (Jan 17 12Z), 945 mb (Jan 17 12Z)
End Jan 22 12Z
ATCF IDs ,SH101976
Track status Best track data.

Storm track plot

Map of storm track

Intensity plots

Map of storm track

Radial wind information

No radial wind information for this storm


Position and Intensity Table

BASIN ISO_TIME_________ NATURE LAT LON WMO WIND WMO PRES BOM WIND BOM PRES WELLINGTON WIND WELLINGTON PRES NEUMANN WIND NEUMANN PRES
degrees north degrees east kts mb kts mb kts mb kts mb
SP 1976-01-11 00:00:00 NR -12.95 177.35 30 997 30 997
SP 03:00:00 NR -13.07 176.78 30 997
SP 06:00:00 NR -13.21 176.20 30 997
SP 09:00:00 NR -13.36 175.61 30 997
SP 12:00:00 NR -13.55 175.00 30 997 30 997
SP 15:00:00 NR -13.77 174.37 30 997
SP 18:00:00 NR -14.01 173.75 30 997
SP 21:00:00 NR -14.25 173.15 30 997
SP 1976-01-12 00:00:00 TS -14.44 172.52 30 997 30 997
SP 03:00:00 TS -14.58 172.06 30 997
SP 06:00:00 TS -14.70 171.65 30 997
SP 09:00:00 TS -14.83 171.26 30 997
SP 12:00:00 TS -14.95 170.88 30 997 30 997
SP 15:00:00 TS -15.06 170.42 32 995
SP 18:00:00 TS -15.17 169.95 35 993
SP 21:00:00 TS -15.28 169.47 37 991
SP 1976-01-13 00:00:00 TS -15.40 168.97 40 990 40 990
SP 03:00:00 TS -15.55 168.44 40 990
SP 06:00:00 TS -15.70 167.91 40 990
SP 09:00:00 TS -15.85 167.43 40 990
SP 12:00:00 TS -15.98 167.05 40 990 40 990
SP 15:00:00 TS -16.03 166.87 40 990
SP 18:00:00 TS -16.08 166.79 40 990
SP 21:00:00 TS -16.14 166.72 40 990
SP 23:00:00 TS -16.15 166.71 40 991 40 990
SP 1976-01-14 00:00:00 TS -16.10 166.74 40 990 40 990 40 990
SP 03:00:00 TS -16.14 166.61 40 990 43 987
SP 05:00:00 TS -16.16 166.52 40 990 46 985
SP 06:00:00 TS -16.19 166.47 40 989 47 985
SP 09:00:00 TS -16.33 166.25 43 989 51 982
SP 11:00:00 TS -16.43 166.11 45 989 53 980
SP 12:00:00 TS -16.47 166.04 55 980 45 988 55 980
SP 15:00:00 TS -16.59 165.89 48 987 55 980
SP 17:00:00 TS -16.67 165.79 50 987 55 980
SP 18:00:00 TS -16.70 165.77 50 986 55 980 50 987
SP 21:00:00 TS -16.89 165.62 50 985 55 980 52 986
SP 23:00:00 TS -17.01 165.51 50 985 55 980 54 985
SP 1976-01-15 00:00:00 TS -17.07 165.46 55 980 50 984 55 980 55 985
SP 03:00:00 TS -17.19 165.23 53 982 57 977 57 983
SP 05:00:00 TS -17.26 165.08 55 981 59 975 59 981
SP 06:00:00 TS -17.29 165.00 55 980 60 975 60 981
SP 09:00:00 TS -17.41 164.76 55 979 62 972 62 980
SP 11:00:00 TS -17.50 164.60 55 979 64 970 64 979
SP 12:00:00 TS -17.55 164.52 65 970 55 978 65 970 65 979
SP 15:00:00 TS -17.72 164.27 58 977 68 966 65 977
SP 17:00:00 TS -17.83 164.10 60 976 71 963 65 976
SP 18:00:00 TS -17.88 164.01 60 975 72 962 65 976
SP 21:00:00 TS -18.02 163.71 63 974 76 958 67 975
SP 23:00:00 TS -18.10 163.51 65 974 78 956 69 974
SP 1976-01-16 00:00:00 TS -18.13 163.41 80 955 65 973 80 955 70 974
SP 03:00:00 TS -18.22 163.13 68 971 78 956 72 972
SP 05:00:00 TS -18.26 162.94 70 970 77 957 74 970
SP 06:00:00 TS -18.29 162.84 70 969 77 957 75 970
SP 09:00:00 TS -18.36 162.55 73 968 76 958 75 969
SP 11:00:00 TS -18.43 162.36 75 968 75 959 75 968
SP 12:00:00 TS -18.46 162.26 75 960 75 967 75 960 75 968
SP 15:00:00 TS -18.60 161.96 78 967 73 961 77 967
SP 17:00:00 TS -18.70 161.75 80 967 72 962 79 967
SP 18:00:00 TS -18.76 161.64 80 967 72 962 80 967
SP 21:00:00 TS -18.93 161.31 80 967 71 963 80 967
SP 23:00:00 TS -19.05 161.07 80 967 70 964 80 967
SP 1976-01-17 00:00:00 TS -19.11 160.95 70 965 80 966 70 965 80 967
SP 03:00:00 TS -19.28 160.60 80 966 73 960 80 966
SP 05:00:00 TS -19.39 160.35 80 966 76 956 80 966
SP 06:00:00 TS -19.45 160.23 80 965 77 955 80 966
SP 09:00:00 TS -19.61 159.84 80 965 81 950 80 965
SP 11:00:00 TS -19.71 159.57 80 965 80 965 83 946 80 965
SP 12:00:00 TS -19.76 159.44 80 965 85 945 80 965
SP 15:00:00 TS -19.91 159.06 80 965 81 950 80 965
SP 17:00:00 TS -20.00 158.80 80 965 80 965 78 953 80 965
SP 18:00:00 TS -20.05 158.67 80 965 77 955 80 965
SP 21:00:00 TS -20.22 158.27 80 965 73 960 80 965
SP 23:00:00 TS -20.33 157.96 80 965 80 965 71 963 80 965
SP 1976-01-18 00:00:00 TS -20.38 157.79 80 965 70 965 80 965
SP 03:00:00 TS -20.53 157.20 80 965 71 963 80 965
SP 05:00:00 TS -20.62 156.79 80 965 80 965 72 962 80 965
SP 06:00:00 TS -20.67 156.58 80 965 72 962 80 965
SP 09:00:00 TS -20.82 155.96 80 965 73 961 80 965
SP 11:00:00 TS -20.92 155.56 80 965 80 965 74 960 80 965
SP 12:00:00 TS -20.96 155.35 80 965 75 960 80 965
SP 15:00:00 TS -21.06 154.76 80 965 76 958 80 965
SP 17:00:00 TS -21.13 154.37 80 965 80 965 77 957 80 965
SP 18:00:00 TS -21.17 154.17 80 965 77 957 80 965
SP 21:00:00 TS -21.32 153.61 80 965 78 956 80 965
SP 23:00:00 TS -21.42 153.22 80 965 80 965 79 955 80 965
SP 1976-01-19 00:00:00 TS -21.47 153.02 80 964 80 955 80 965
SP 03:00:00 TS -21.58 152.35 83 963 76 958 82 964
SP 05:00:00 TS -21.66 151.86 85 963 85 963 73 961 84 963
SP 06:00:00 TS -21.69 151.61 85 962 72 962 85 963
SP 09:00:00 TS -21.80 150.81 85 961 68 966 85 962
SP 11:00:00 TS -21.87 150.27 85 961 85 961 66 968 85 961
SP 12:00:00 TS -21.91 150.02 76 961 65 970 85 961
SP 14:00:00 TS -22.00 149.52 60 963 60 963 60 973 81 963
SP 15:00:00 TS -22.05 149.27 53 964 58 975 80 965
SP 17:00:00 TS -22.19 148.76 40 969 40 969 54 978 76 967
SP 18:00:00 TS -22.27 148.49 39 970 52 980 75 969
SP 21:00:00 TS -22.57 147.64 36 975 46 985 62 974
SP 23:00:00 TS -22.80 147.08 35 979 35 979 42 988 54 977
SP 1976-01-20 00:00:00 TS -22.92 146.81 34 979 40 990 50 979
SP 03:00:00 TS -23.29 146.06 31 981 40 990 45 981
SP 05:00:00 TS -23.54 145.61 30 983 30 983 40 990 41 982
SP 06:00:00 TS -23.65 145.41 30 983 40 990 40 983
SP 09:00:00 TS -23.95 144.89 30 984 40 990 37 984
SP 11:00:00 TS -24.14 144.57 30 985 30 985 40 990 35 984
SP 12:00:00 TS -24.26 144.40 28 985 40 990 35 985
SP 15:00:00 TS -24.65 143.86 23 985 37 991 35 986
SP 17:00:00 TS -24.92 143.51 20 986 20 986 35 992 35 986
SP 18:00:00 TS -25.05 143.35 19 986 35 993 35 987
SP 21:00:00 TS -25.42 142.89 16 987 32 995 32 988
SP 23:00:00 TS -25.65 142.64 15 989 15 989 30 996 30 988
SP 1976-01-21 00:00:00 TS -25.78 142.54 15 989 30 997 30 989
SP 02:00:00 TS -25.98 142.36 15 990 15 990 30 989
SP 03:00:00 TS -26.06 142.29 15 990 30 990
SP 05:00:00 TS -26.22 142.21 15 990 15 990 30 990
SP 06:00:00 TS -26.30 142.19 15 990 30 991
SP 09:00:00 TS -26.59 142.21 15 991 30 992
SP 11:00:00 TS -26.79 142.28 15 993 15 993 30 992
SP 12:00:00 TS -26.90 142.31 15 993 30 993
SP 15:00:00 TS -27.18 142.39 15 993 30 993
SP 18:00:00 TS -27.46 142.47 15 994 30 994
SP 21:00:00 TS -27.74 142.53 15 995 27 994
SP 23:00:00 TS -27.91 142.67 15 996 15 996 25 994
SP 1976-01-22 00:00:00 TS -27.99 142.75 25 995
SP 03:00:00 TS -28.17 143.39
SP 06:00:00 TS -28.29 144.37
SP 09:00:00 TS -28.36 145.62
SP 12:00:00 TS -28.40 147.00

Source Information

Agency Information
USA bsh101976.txt
TOKYO
CMA
HKO
NEWDELHI
REUNION
BOM IDCKMSTM0S.csv:Line=10022:DAVID
NADI
WELLINGTON TC_BT_1967_2006.csv:Line=788:DAVID
DS824 s_hem.dat:1304:10P
TD9636 cons_worldwide_trop_cyclone_18710101-19891231-006:Line=10037
TD9635
NEUMANN tracks.sh:Storm=456:DAVID:BSH1076:BM462&NZeal756
MLC

All available IBTrACS Data

SEASON BASIN SUBBASIN ISO_TIME_________ NATURE LAT LON WMO WIND WMO PRES WMO AGENCY DIST2LAND LANDFALL IFLAG USA AGENCY USA ATCF_ID USA LAT USA LON USA SSHS BOM LAT BOM LON BOM TYPE BOM WIND BOM PRES BOM CI BOM PRES_METHOD WELLINGTON LAT WELLINGTON LON WELLINGTON WIND WELLINGTON PRES DS824 LAT DS824 LON DS824 STAGE TD9636 LAT TD9636 LON TD9636 STAGE NEUMANN LAT NEUMANN LON NEUMANN CLASS NEUMANN WIND NEUMANN PRES BOM GUST BOM GUST_PER STORM SPEED STORM DIR
Year degrees north degrees east kts mb km km degrees north degrees east 1 degrees north degrees east kts mb 1 degrees north degrees east kts mb degrees north degrees east degrees north degrees east degrees north degrees east kts mb kts second kts degrees
1976 SP MM 1976-01-11 00:00:00 NR -12.95 177.35 30 997 wellington 438 432 ________O_O___ -1 -13.00 177.30 30 997 -12.90 177.40 1 11 257
1976 SP MM 03:00:00 NR -13.07 176.78 442 442 ________P_P___ -1 -13.08 176.71 30 997 -13.07 176.85 1 12 257
1976 SP MM 06:00:00 NR -13.21 176.20 463 463 ________P_P___ -1 -13.18 176.12 30 997 -13.23 176.27 1 12 256
1976 SP MM 09:00:00 NR -13.36 175.61 483 483 ________P_P___ -1 -13.32 175.55 30 997 -13.41 175.67 1 12 254
1976 SP MM 12:00:00 NR -13.55 175.00 30 997 wellington 519 511 ________O_O___ -1 -13.50 175.00 30 997 -13.60 175.00 1 13 251
1976 SP MM 15:00:00 NR -13.77 174.37 530 530 ________P_P___ -1 -13.74 174.47 30 997 -13.80 174.27 1 13 249
1976 SP MM 18:00:00 NR -14.01 173.75 564 564 ________P_P___ -1 -14.01 173.97 30 997 -14.01 173.53 1 13 248
1976 SP MM 21:00:00 NR -14.25 173.15 596 557 ________P_P___ -1 -14.28 173.48 30 997 -14.21 172.82 1 13 250
1976 SP MM 1976-01-12 00:00:00 TS -14.44 172.52 30 997 wellington 547 498 O_______OOO___ jtwc_sh SH101976 -14.40 172.20 -1 -14.50 173.00 30 997 -14.40 172.20 TC -14.40 172.20 1 11 253
1976 SP MM 03:00:00 TS -14.58 172.06 498 454 P_______PPP___ SH101976 -14.55 171.85 -1 -14.61 172.57 30 997 -14.55 171.85 TC -14.57 171.75 1 9 253
1976 SP MM 06:00:00 TS -14.70 171.65 454 410 O_______POP___ jtwc_sh SH101976 -14.70 171.50 -1 -14.68 172.13 30 997 -14.70 171.50 TC -14.73 171.40 1 8 252
1976 SP MM 09:00:00 TS -14.83 171.26 410 367 P_______PPP___ SH101976 -14.86 171.15 -1 -14.73 171.66 30 997 -14.86 171.15 TC -14.87 171.10 1 8 252
1976 SP MM 12:00:00 TS -14.95 170.88 30 997 wellington 367 318 O_______OOO___ jtwc_sh SH101976 -15.00 170.80 -1 -14.80 171.10 30 997 -15.00 170.80 TC -15.00 170.80 1 8 254
1976 SP MM 15:00:00 TS -15.06 170.42 309 265 P_______PPP___ SH101976 -15.11 170.46 -1 -14.93 170.32 32 995 -15.11 170.46 TC -15.11 170.46 1 9 256
1976 SP MM 18:00:00 TS -15.17 169.95 256 213 O_______POP___ jtwc_sh SH101976 -15.20 170.10 -1 -15.09 169.47 35 993 -15.20 170.10 TC -15.20 170.12 1 10 257
1976 SP MM 21:00:00 TS -15.28 169.47 213 163 P_______PPP___ SH101976 -15.29 169.74 -1 -15.25 168.66 37 991 -15.29 169.74 TC -15.29 169.74 1 10 256
1976 SP MM 1976-01-13 00:00:00 TS -15.40 168.97 40 990 wellington 163 116 O_______OOO___ jtwc_sh SH101976 -15.40 169.30 -1 -15.40 168.00 40 990 -15.40 169.30 TC -15.40 169.30 2 10 255
1976 SP MM 03:00:00 TS -15.55 168.44 110 63 P_______PPP___ SH101976 -15.54 168.72 -1 -15.55 167.61 40 990 -15.54 168.72 TC -15.55 168.71 2 11 254
1976 SP MM 06:00:00 TS -15.70 167.91 63 24 O_______POP___ jtwc_sh SH101976 -15.70 168.10 -1 -15.69 167.38 40 990 -15.70 168.10 TC -15.71 168.08 2 10 253
1976 SP MM 09:00:00 TS -15.85 167.43 11 10 P_______PPP___ SH101976 -15.87 167.48 -1 -15.81 167.26 40 990 -15.87 167.48 TC -15.86 167.48 2 9 252
1976 SP MM 12:00:00 TS -15.98 167.05 40 990 wellington 10 10 O_______OOO___ jtwc_sh SH101976 -16.00 167.00 -1 -15.90 167.20 40 990 -16.00 167.00 TC -16.00 167.00 2 6 251
1976 SP MM 15:00:00 TS -16.03 166.87 24 24 P_______PPP___ SH101976 -16.06 166.78 -1 -15.93 167.14 40 990 -16.06 166.78 TC -16.09 166.76 2 3 248
1976 SP MM 18:00:00 TS -16.08 166.79 32 32 O_______POP___ jtwc_sh SH101976 -16.10 166.70 -1 -15.94 167.11 40 990 -16.10 166.70 TC -16.16 166.64 2 2 231
1976 SP MM 21:00:00 TS -16.14 166.72 42 42 P_______PPP___ SH101976 -16.19 166.61 -1 -15.96 167.08 40 990 -16.19 166.61 TC -16.23 166.58 2 1 226
1976 SP MM 23:00:00 TS -16.15 166.71 42 42 P_____O_PPP___ SH101976 -16.26 166.55 -1 -15.40 167.40 30 40 991 3.00 -15.98 167.04 40 990 -16.26 166.55 TC -16.28 166.53 2 55 55 1 0
1976 SP MM 1976-01-14 00:00:00 TS -16.10 166.74 40 990 wellington 42 42 O_____P_OOO___ jtwc_sh SH101976 -16.30 166.50 -1 -15.42 167.38 30 40 990 -16.00 167.00 40 990 -16.30 166.50 TC -16.30 166.50 2 1 277
1976 SP MM 03:00:00 TS -16.14 166.61 49 49 P_____P_PPP___ SH101976 -16.40 166.27 -1 -15.51 167.29 30 40 990 -16.12 166.79 43 987 -16.40 166.27 TC -16.39 166.30 2 3 252
1976 SP MM 05:00:00 TS -16.16 166.52 64 64 P_____O_PPP___ SH101976 -16.47 166.09 -1 -15.60 167.20 30 40 990 3.00 -16.22 166.61 46 985 -16.47 166.09 TC -16.46 166.14 2 55 55 3 250
1976 SP MM 06:00:00 TS -16.19 166.47 64 64 O_____P_POP___ jtwc_sh SH101976 -16.50 166.00 -1 -15.66 167.14 30 40 989 -16.28 166.52 47 985 -16.50 166.00 TC -16.49 166.07 2 5 237
1976 SP MM 09:00:00 TS -16.33 166.25 92 92 P_____P_PPP___ SH101976 -16.60 165.78 -1 -15.86 166.94 30 43 989 -16.44 166.25 51 982 -16.60 165.78 TC -16.60 165.83 2 5 235
1976 SP MM 11:00:00 TS -16.43 166.11 108 108 P_____O_PPP___ SH101976 -16.67 165.66 -1 -16.00 166.80 30 45 989 3.00 -16.55 166.08 53 980 -16.67 165.66 TC -16.67 165.67 2 64 64 5 235
1976 SP MM 12:00:00 TS -16.47 166.04 55 980 wellington 123 123 O_____P_OOO___ jtwc_sh SH101976 -16.70 165.60 -1 -16.05 166.75 30 45 988 -16.60 166.00 55 980 -16.70 165.60 TC -16.70 165.60 2 4 233
1976 SP MM 15:00:00 TS -16.59 165.89 139 139 P_____P_PPP___ SH101976 -16.80 165.45 -1 -16.17 166.61 30 48 987 -16.71 165.84 55 980 -16.80 165.45 TC -16.80 165.42 2 4 231
1976 SP MM 17:00:00 TS -16.67 165.79 154 154 P_____O_PPP___ SH101976 -16.87 165.35 -1 -16.30 166.50 30 50 987 3.50 -16.78 165.76 55 980 -16.87 165.35 TC -16.87 165.31 2 69 69 3 224
1976 SP MM 18:00:00 TS -16.70 165.77 154 154 O_____P_POP_O_ jtwc_sh SH101976 -16.90 165.30 -1 -16.40 166.43 30 50 986 -16.81 165.72 55 980 -16.90 165.30 TC -16.91 165.26 2 -16.30 166.70 TC 50 987 4 217
1976 SP MM 21:00:00 TS -16.89 165.62 183 183 P_____P_PPP_P_ SH101976 -17.01 165.12 -1 -16.77 166.18 30 50 985 -16.91 165.61 55 980 -17.01 165.12 TC -17.01 165.09 2 -16.68 166.45 TC 52 986 5 220
1976 SP MM 23:00:00 TS -17.01 165.51 198 198 P_____O_PPP_P_ SH101976 -17.07 164.98 -1 -17.00 166.00 30 50 985 3.50 -16.97 165.54 55 980 -17.07 164.98 TC -17.07 164.97 2 -16.91 166.28 TC 54 985 69 69 5 219
1976 SP MM 1976-01-15 00:00:00 TS -17.07 165.46 55 980 wellington 203 203 O_____P_OOO_O_ jtwc_sh SH101976 -17.10 164.90 -1 -17.09 165.92 30 50 984 -17.00 165.50 55 980 -17.10 164.90 TC -17.10 164.90 2 -17.00 166.20 TC 55 985 5 235
1976 SP MM 03:00:00 TS -17.19 165.23 236 236 P_____P_PPP_P_ SH101976 -17.15 164.66 -1 -17.30 165.67 30 53 982 -17.09 165.38 57 977 -17.15 164.66 TC -17.17 164.67 2 -17.21 165.95 TC 57 983 5 243
1976 SP MM 05:00:00 TS -17.26 165.08 251 251 P_____O_PPP_P_ SH101976 -17.18 164.49 -1 -17.40 165.50 30 55 981 4.00 -17.15 165.29 59 975 -17.18 164.49 TC -17.21 164.50 2 -17.34 165.78 TC 59 981 75 75 5 246
1976 SP MM 06:00:00 TS -17.29 165.00 260 260 O_____P_POP_O_ jtwc_sh SH101976 -17.20 164.40 -1 -17.44 165.42 30 55 980 -17.18 165.24 60 975 -17.20 164.40 TC -17.24 164.41 2 -17.40 165.70 TC 60 981 5 243
1976 SP MM 09:00:00 TS -17.41 164.76 284 284 P_____P_PPP_P_ SH101976 -17.28 164.14 -1 -17.52 165.17 30 55 979 -17.29 165.09 62 972 -17.28 164.14 TC -17.31 164.15 2 -17.66 165.46 TC 62 980 5 241
1976 SP MM 11:00:00 TS -17.50 164.60 306 304 P_____O_PPP_P_ SH101976 -17.36 163.98 -1 -17.60 165.00 30 55 979 4.00 -17.36 164.97 64 970 -17.36 163.98 TC -17.37 163.98 2 -17.83 165.29 TC 64 979 75 75 5 239
1976 SP MM 12:00:00 TS -17.55 164.52 65 970 wellington 293 280 O_____P_OOO_O_ jtwc_sh SH101976 -17.40 163.90 -1 -17.67 164.91 30 55 978 -17.40 164.90 65 970 -17.40 163.90 TC -17.40 163.90 4 -17.90 165.20 TC 65 979 6 235
1976 SP MM 15:00:00 TS -17.72 164.27 280 268 P_____P_PPP_P_ SH101976 -17.54 163.70 -1 -17.94 164.61 30 58 977 -17.54 164.68 68 966 -17.54 163.70 TC -17.54 163.67 4 -18.02 164.91 TC 65 977 6 235
1976 SP MM 17:00:00 TS -17.83 164.10 268 257 P_____O_PPP_P_ SH101976 -17.65 163.57 -1 -18.10 164.40 30 60 976 4.00 -17.65 164.51 71 963 -17.65 163.57 TC -17.64 163.52 4 -18.07 164.71 TC 65 976 84 84 6 238
1976 SP MM 18:00:00 TS -17.88 164.01 257 248 O_____P_POP_O_ jtwc_sh SH101976 -17.70 163.50 -1 -18.15 164.29 30 60 975 -17.70 164.42 72 962 -17.70 163.50 TC -17.69 163.45 4 -18.10 164.60 TC 65 976 6 243
1976 SP MM 21:00:00 TS -18.02 163.71 249 240 P_____P_PPP_P_ SH101976 -17.86 163.26 -1 -18.26 163.93 30 63 974 -17.86 164.12 76 958 -17.86 163.26 TC -17.85 163.23 4 -18.21 164.25 TC 67 975 6 245
1976 SP MM 23:00:00 TS -18.10 163.51 243 243 P_____O_PPP_P_ SH101976 -17.96 163.09 -1 -18.30 163.70 30 65 974 4.50 -17.95 163.91 78 956 -17.96 163.09 TC -17.95 163.08 4 -18.27 164.01 TC 69 974 89 89 6 248
1976 SP MM 1976-01-16 00:00:00 TS -18.13 163.41 80 955 wellington 246 238 O_____P_OOO_O_ jtwc_sh SH101976 -18.00 163.00 -1 -18.32 163.59 30 65 973 -18.00 163.80 80 955 -18.00 163.00 TC -18.00 163.00 4 -18.30 163.90 TC 70 974 6 252
1976 SP MM 03:00:00 TS -18.22 163.13 247 241 P_____P_PPP_P_ SH101976 -18.11 162.75 -1 -18.37 163.29 30 68 971 -18.11 163.45 78 956 -18.11 162.75 TC -18.11 162.76 4 -18.36 163.59 TC 72 972 6 254
1976 SP MM 05:00:00 TS -18.26 162.94 247 247 P_____O_PPP_P_ SH101976 -18.17 162.58 -1 -18.40 163.10 40 70 970 4.50 3 -18.17 163.19 77 957 -18.17 162.58 TC -18.17 162.60 4 -18.39 163.40 TC 74 970 99 99 6 255
1976 SP MM 06:00:00 TS -18.29 162.84 252 252 O_____P_POP_O_ jtwc_sh SH101976 -18.20 162.50 -1 -18.41 163.00 40 70 969 -18.20 163.06 77 957 -18.20 162.50 TC -18.20 162.51 4 -18.40 163.30 TC 75 970 6 255
1976 SP MM 09:00:00 TS -18.36 162.55 255 255 P_____P_PPP_P_ SH101976 -18.29 162.25 -1 -18.45 162.71 40 73 968 -18.29 162.68 76 958 -18.29 162.25 TC -18.29 162.26 4 -18.43 163.01 TC 75 969 6 253
1976 SP MM 11:00:00 TS -18.43 162.36 269 267 P_____O_PPP_P_ SH101976 -18.36 162.08 -1 -18.50 162.50 40 75 968 4.50 -18.36 162.42 75 959 -18.36 162.08 TC -18.36 162.09 4 -18.47 162.81 TC 75 968 104 104 6 250
1976 SP MM 12:00:00 TS -18.46 162.26 75 960 wellington 267 267 O_____P_OOO_O_ jtwc_sh SH101976 -18.40 162.00 -1 -18.54 162.39 40 75 967 -18.40 162.30 75 960 -18.40 162.00 TC -18.40 162.00 4 -18.50 162.70 TC 75 968 6 245
1976 SP MM 15:00:00 TS -18.60 161.96 283 283 P_____P_PPP_P_ SH101976 -18.54 161.76 -1 -18.68 162.05 40 78 967 -18.53 161.96 73 961 -18.54 161.76 TC -18.53 161.76 4 -18.63 162.36 TC 77 967 6 243
1976 SP MM 17:00:00 TS -18.70 161.75 291 300 P_____O_PPP_P_ SH101976 -18.65 161.59 -1 -18.80 161.80 40 80 967 5.00 3 -18.62 161.74 72 962 -18.65 161.59 TC -18.62 161.59 4 -18.74 162.12 TC 79 967 110 110 7 242
1976 SP MM 18:00:00 TS -18.76 161.64 302 302 O_____P_POP_O_ jtwc_sh SH101976 -18.70 161.50 -1 -18.86 161.67 40 80 967 -18.67 161.63 72 962 -18.70 161.50 TC -18.67 161.50 4 -18.80 162.00 TC 80 967 7 241
1976 SP MM 21:00:00 TS -18.93 161.31 323 317 P_____P_PPP_P_ SH101976 -18.84 161.22 -1 -19.07 161.26 40 80 967 -18.83 161.32 71 963 -18.84 161.22 TC -18.83 161.22 4 -19.00 161.60 TC 80 967 7 242
1976 SP MM 23:00:00 TS -19.05 161.07 336 331 P_____O_PPP_P_ SH101976 -18.94 161.01 -1 -19.20 161.00 40 80 967 5.00 -18.94 161.11 70 964 -18.94 161.01 TC -18.94 161.01 4 -19.14 161.33 TC 80 967 110 110 8 242
1976 SP MM 1976-01-17 00:00:00 TS -19.11 160.95 70 965 wellington 341 341 O_____P_OOO_O_ jtwc_sh SH101976 -19.00 160.90 -1 -19.26 160.88 40 80 966 -19.00 161.00 70 965 -19.00 160.90 TC -19.00 160.90 4 -19.20 161.20 TC 80 967 8 243
1976 SP MM 03:00:00 TS -19.28 160.60 372 372 P_____P_PPP_P_ SH101976 -19.19 160.52 -1 -19.41 160.53 40 80 966 -19.19 160.70 73 960 -19.19 160.52 TC -19.19 160.52 4 -19.36 160.84 TC 80 966 8 244
1976 SP MM 05:00:00 TS -19.39 160.35 389 399 P_____O_PPP_P_ SH101976 -19.33 160.24 -1 -19.50 160.30 40 80 966 5.00 -19.32 160.50 76 956 -19.33 160.24 TC -19.32 160.24 4 -19.46 160.61 TC 80 966 110 110 8 245
1976 SP MM 06:00:00 TS -19.45 160.23 409 407 O_____P_POP_O_ jtwc_sh SH101976 -19.40 160.10 -1 -19.54 160.18 40 80 965 -19.39 160.40 77 955 -19.40 160.10 TC -19.39 160.10 4 -19.50 160.50 TC 80 966 8 246
1976 SP EA 09:00:00 TS -19.61 159.84 445 445 P_____P_PPP_P_ SH101976 -19.61 159.65 -1 -19.64 159.83 40 80 965 -19.60 160.07 81 950 -19.61 159.65 TC -19.60 159.65 4 -19.61 160.15 TC 80 965 8 247
1976 SP EA 11:00:00 TS -19.71 159.57 80 965 bom 464 464 P_____O_PPP_P_ SH101976 -19.74 159.35 -1 -19.70 159.60 40 80 965 5.00 -19.73 159.83 83 946 -19.74 159.35 TC -19.73 159.35 4 -19.67 159.92 TC 80 965 110 110 8 248
1976 SP EA 12:00:00 TS -19.76 159.44 483 483 O_____P_OOO_O_ jtwc_sh SH101976 -19.80 159.20 -1 -19.73 159.48 40 80 965 -19.80 159.70 85 945 -19.80 159.20 TC -19.80 159.20 4 -19.70 159.80 TC 80 965 8 248
1976 SP EA 15:00:00 TS -19.91 159.06 513 513 P_____P_PPP_P_ SH101976 -19.95 158.80 -1 -19.83 159.13 40 80 965 -19.99 159.28 81 950 -19.95 158.80 TC -19.98 158.79 4 -19.79 159.47 TC 80 965 8 248
1976 SP EA 17:00:00 TS -20.00 158.80 80 965 bom 543 543 P_____O_PPP_P_ SH101976 -20.05 158.54 -1 -19.90 158.90 40 80 965 5.00 -20.11 158.97 78 953 -20.05 158.54 TC -20.10 158.52 4 -19.86 159.23 TC 80 965 110 110 8 248
1976 SP EA 18:00:00 TS -20.05 158.67 553 553 O_____P_POP_O_ jtwc_sh SH101976 -20.10 158.40 -1 -19.95 158.82 40 80 965 -20.17 158.80 77 955 -20.10 158.40 TC -20.16 158.38 4 -19.90 159.10 TC 80 965 8 247
1976 SP EA 21:00:00 TS -20.22 158.27 594 594 P_____P_PPP_P_ SH101976 -20.30 157.97 -1 -20.10 158.56 40 80 965 -20.34 158.28 73 960 -20.30 157.97 TC -20.33 157.95 4 -20.04 158.64 TC 80 965 9 248
1976 SP EA 23:00:00 TS -20.33 157.96 80 965 bom 625 635 P_____O_PPP_P_ SH101976 -20.44 157.66 -1 -20.20 158.30 40 80 965 5.00 -20.45 157.90 71 963 -20.44 157.66 TC -20.44 157.65 4 -20.15 158.29 TC 80 965 110 110 10 250
1976 SP EA 1976-01-18 00:00:00 TS -20.38 157.79 646 625 O_____P_OOO_O_ jtwc_sh SH101976 -20.50 157.50 -1 -20.24 158.11 40 80 965 -20.50 157.70 70 965 -20.50 157.50 TC -20.50 157.50 4 -20.20 158.10 TC 80 965 11 254
1976 SP EA 03:00:00 TS -20.53 157.20 625 590 P_____P_PPP_P_ SH101976 -20.65 157.01 -1 -20.33 157.41 40 80 965 -20.64 157.08 71 963 -20.65 157.01 TC -20.70 157.00 4 -20.36 157.46 TC 80 965 12 255
1976 SP EA 05:00:00 TS -20.62 156.79 80 965 bom 590 569 P_____O_PPP_P_ SH101976 -20.75 156.67 -1 -20.40 156.90 40 80 965 5.00 -20.73 156.64 72 962 -20.75 156.67 TC -20.82 156.65 4 -20.46 157.01 TC 80 965 110 110 12 256
1976 SP EA 06:00:00 TS -20.67 156.58 569 525 O_____P_POP_O_ jtwc_sh SH101976 -20.80 156.50 -1 -20.45 156.66 40 80 965 -20.77 156.42 72 962 -20.80 156.50 TC -20.89 156.47 4 -20.50 156.80 TC 80 965 12 255
1976 SP EA 09:00:00 TS -20.82 155.96 525 495 P_____P_PPP_P_ SH101976 -21.01 155.95 -1 -20.60 155.96 40 80 965 -20.89 155.72 73 961 -21.01 155.95 TC -21.06 155.93 4 -20.61 156.25 TC 80 965 12 255
1976 SP EA 11:00:00 TS -20.92 155.56 80 965 bom 495 476 P_____O_PPP_P_ SH101976 -21.14 155.58 -1 -20.70 155.50 40 80 965 5.00 -20.96 155.24 74 960 -21.14 155.58 TC -21.16 155.58 4 -20.67 155.89 TC 80 965 110 110 12 257
1976 SP EA 12:00:00 TS -20.96 155.35 476 441 O_____P_OOO_O_ jtwc_sh SH101976 -21.20 155.40 -1 -20.73 155.27 40 80 965 -21.00 155.00 75 960 -21.20 155.40 TC -21.20 155.40 4 -20.70 155.70 TC 80 965 11 259
1976 SP EA 15:00:00 TS -21.06 154.76 441 403 P_____P_PPP_P_ SH101976 -21.33 154.89 -1 -20.81 154.62 40 80 965 -21.10 154.26 76 958 -21.33 154.89 TC -21.28 154.96 4 -20.77 155.06 TC 80 965 11 260
1976 SP EA 17:00:00 TS -21.13 154.37 80 965 bom 403 379 P_____O_PPP_P_ SH101976 -21.38 154.56 -1 -20.90 154.20 40 80 965 5.00 -21.16 153.75 77 957 -21.38 154.56 TC -21.31 154.67 4 -20.84 154.62 TC 80 965 110 110 11 259
1976 SP EA 18:00:00 TS -21.17 154.17 379 318 O_____P_POP_O_ jtwc_sh SH101976 -21.40 154.40 -1 -20.98 153.99 40 80 965 -21.19 153.50 77 957 -21.40 154.40 TC -21.32 154.52 4 -20.90 154.40 TC 80 965 11 255
1976 SP EA 21:00:00 TS -21.32 153.61 318 276 P_____P_PPP_P_ SH101976 -21.40 153.95 -1 -21.30 153.39 40 80 965 -21.29 152.78 78 956 -21.40 153.95 TC -21.35 154.02 4 -21.19 153.79 TC 80 965 11 254
1976 SP EA 23:00:00 TS -21.42 153.22 80 965 bom 276 262 P_____O_PPP_P_ SH101976 -21.39 153.61 -1 -21.50 153.00 40 80 965 5.00 2 -21.36 152.32 79 955 -21.39 153.61 TC -21.38 153.62 4 -21.41 153.40 TC 80 965 110 110 11 255
1976 SP EA 1976-01-19 00:00:00 TS -21.47 153.02 252 193 O_____P_OOO_O_ jtwc_sh SH101976 -21.40 153.40 -1 -21.57 152.81 40 80 964 -21.40 152.10 80 955 -21.40 153.40 TC -21.40 153.40 4 -21.50 153.20 TC 80 965 12 259
1976 SP EA 03:00:00 TS -21.58 152.35 184 144 P_____P_PPP_P_ SH101976 -21.48 152.63 -1 -21.72 152.22 40 83 963 -21.52 151.55 76 958 -21.48 152.63 TC -21.47 152.57 4 -21.68 152.61 TC 82 964 13 260
1976 SP EA 05:00:00 TS -21.66 151.86 85 963 bom 144 128 P_____O_PPP_P_ SH101976 -21.56 152.02 -1 -21.80 151.80 40 85 963 5.00 -21.60 151.22 73 961 -21.56 152.02 TC -21.52 151.95 4 -21.76 152.21 TC 84 963 119 119 14 261
1976 SP EA 06:00:00 TS -21.69 151.61 121 70 O_____P_POP_O_ jtwc_sh SH101976 -21.60 151.70 -1 -21.85 151.57 40 85 962 -21.65 151.06 72 962 -21.60 151.70 TC -21.55 151.62 4 -21.80 152.00 TC 85 963 15 262
1976 SP EA 09:00:00 TS -21.80 150.81 67 45 P_____P_PPP_P_ SH101976 -21.69 150.69 -1 -21.96 150.85 40 85 961 -21.81 150.56 68 966 -21.69 150.69 TC -21.66 150.64 4 -21.91 151.31 TC 85 962 15 262
1976 SP EA 11:00:00 TS -21.87 150.27 85 961 bom 45 35 P_____O_PPP_P_ SH101976 -21.76 150.02 -1 -22.00 150.40 40 85 961 5.00 2 -21.93 150.19 66 968 -21.76 150.02 TC -21.75 150.01 4 -21.97 150.84 TC 85 961 119 119 15 261
1976 SP EA 12:00:00 TS -21.91 150.02 33 10 O_____P_OOO_O_ jtwc_sh SH101976 -21.80 149.70 -1 -21.99 150.21 40 76 961 -22.00 150.00 65 970 -21.80 149.70 TC -21.80 149.70 4 -22.00 150.60 TC 85 961 14 260
1976 SP EA 14:00:00 TS -22.00 149.52 60 963 bom 10 0 P_____O_PPP_P_ SH101976 -21.91 149.12 -1 -22.00 149.80 40 60 963 5.00 3 -22.16 149.54 60 973 -21.91 149.12 TC -21.90 149.14 4 -22.03 150.17 TC 81 963 84 84 14 259
1976 SP EA 15:00:00 TS -22.05 149.27 0 0 P_____P_PPP_P_ SH101976 -21.98 148.85 -1 -22.04 149.56 40 53 964 -22.24 149.30 58 975 -21.98 148.85 TC -21.96 148.87 4 -22.05 149.94 TC 80 965 15 255
1976 SP EA 17:00:00 TS -22.19 148.76 40 969 bom 0 0 P_____O_PPP_P_ SH101976 -22.12 148.34 -1 -22.20 149.00 30 40 969 -22.42 148.80 54 978 -22.12 148.34 TC -22.09 148.35 4 -22.13 149.47 TC 76 967 55 55 15 253
1976 SP EA 18:00:00 TS -22.27 148.49 0 0 O_____P_POP_O_ jtwc_sh SH101976 -22.20 148.10 -1 -22.30 148.69 30 39 970 -22.51 148.55 52 980 -22.20 148.10 TC -22.17 148.09 4 -22.20 149.20 TC 75 969 17 250
1976 SP EA 21:00:00 TS -22.57 147.64 0 0 P_____P_PPP_P_ SH101976 -22.43 147.37 -1 -22.69 147.67 30 36 975 -22.77 147.77 46 985 -22.43 147.37 TC -22.41 147.37 4 -22.54 148.22 TC 62 974 17 248
1976 SP EA 23:00:00 TS -22.80 147.08 35 979 bom 0 0 P_____O_PPP_P_ SH101976 -22.60 146.92 -1 -23.00 147.00 30 35 979 -22.93 147.25 42 988 -22.60 146.92 TC -22.60 146.92 4 -22.84 147.53 TC 54 977 49 49 17 245
1976 SP EA 1976-01-20 00:00:00 TS -22.92 146.81 0 0 O_____P_OOO_O_ jtwc_sh SH101976 -22.70 146.70 -1 -23.17 146.68 30 34 979 -23.00 147.00 40 990 -22.70 146.70 TC -22.70 146.70 2 -23.00 147.20 TC 50 979 16 242
1976 SP EA 03:00:00 TS -23.29 146.06 0 0 P_____P_PPP_P_ SH101976 -23.03 146.08 -1 -23.70 145.78 30 31 981 -23.10 146.27 40 990 -23.03 146.08 TC -23.01 146.05 2 -23.52 146.26 TC 45 981 15 241
1976 SP EA 05:00:00 TS -23.54 145.61 30 983 bom 0 0 P_____O_PPP_P_ SH101976 -23.27 145.69 -1 -24.00 145.30 30 30 983 -23.15 145.80 40 990 -23.27 145.69 TC -23.24 145.65 2 -23.86 145.72 TC 41 982 45 45 14 239
1976 SP EA 06:00:00 TS -23.65 145.41 0 0 O_____P_POP_O_ jtwc_sh SH101976 -23.40 145.50 -1 -24.11 145.12 30 30 983 -23.17 145.57 40 990 -23.40 145.50 TC -23.37 145.46 2 -24.00 145.50 TC 40 983 12 238
1976 SP EA 09:00:00 TS -23.95 144.89 0 0 P_____P_PPP_P_ SH101976 -23.77 144.93 -1 -24.36 144.74 30 30 984 -23.29 144.91 40 990 -23.77 144.93 TC -23.76 144.91 2 -24.29 145.05 TC 37 984 11 237
1976 SP EA 11:00:00 TS -24.14 144.57 30 985 bom 0 0 P_____O_PPP_P_ SH101976 -24.05 144.57 -1 -24.50 144.50 20 30 985 -23.41 144.50 40 990 -24.05 144.57 TC -24.05 144.57 2 -24.43 144.83 TC 35 984 45 45 11 235
1976 SP EA 12:00:00 TS -24.26 144.40 0 0 O_____P_OOO_O_ jtwc_sh SH101976 -24.20 144.40 -1 -24.59 144.33 20 28 985 -23.50 144.30 40 990 -24.20 144.40 TC -24.20 144.40 2 -24.50 144.70 TC 35 985 12 232
1976 SP EA 15:00:00 TS -24.65 143.86 0 0 P_____P_PPP_P_ SH101976 -24.74 143.88 -1 -24.85 143.77 20 23 985 -23.86 143.75 37 991 -24.74 143.88 TC -24.71 143.87 2 -24.77 144.16 TC 35 986 13 231
1976 SP EA 17:00:00 TS -24.92 143.51 20 986 bom 0 0 P_____O_PPP_P_ SH101976 -25.12 143.55 -1 -25.00 143.40 20 20 986 -24.17 143.41 35 992 -25.12 143.55 TC -25.07 143.53 2 -24.93 143.78 TC 35 986 45 45 12 229
1976 SP EA 18:00:00 TS -25.05 143.35 0 0 O_____P_POP_O_ jtwc_sh SH101976 -25.30 143.40 -1 -25.04 143.23 20 19 986 -24.34 143.24 35 993 -25.30 143.40 TC -25.24 143.37 2 -25.00 143.60 TC 35 987 11 228
1976 SP EA 21:00:00 TS -25.42 142.89 0 0 P_____P_PPP_P_ SH101976 -25.80 142.95 -1 -25.16 142.76 20 16 987 -24.90 142.77 32 995 -25.80 142.95 TC -25.76 142.94 2 -25.14 143.10 TC 32 988 11 227
1976 SP EA 23:00:00 TS -25.65 142.64 15 989 bom 0 0 P_____O_PPP_P_ SH101976 -26.08 142.71 -1 -25.30 142.50 20 15 989 -25.30 142.45 30 996 -26.08 142.71 TC -26.06 142.70 2 -25.24 142.82 TC 30 988 45 45 10 222
1976 SP EA 1976-01-21 00:00:00 TS -25.78 142.54 0 0 O_____P_OOO_O_ jtwc_sh SH101976 -26.20 142.60 -1 -25.43 142.38 20 15 989 -25.50 142.30 30 997 -26.20 142.60 TC -26.20 142.60 2 -25.30 142.70 TC 30 989 8 217
1976 SP EA 02:00:00 TS -25.98 142.36 15 990 bom 0 0 P_____O__PP_P_ SH101976 -26.37 142.42 -1 -25.70 142.20 20 15 990 -26.37 142.42 TC -26.41 142.40 2 -25.47 142.48 TC 30 989 45 45 7 217
1976 SP EA 03:00:00 TS -26.06 142.29 0 0 P_____P__PP_P_ SH101976 -26.43 142.35 -1 -25.78 142.14 20 15 990 -26.43 142.35 TC -26.50 142.31 2 -25.57 142.40 TC 30 990 6 210
1976 SP EA 05:00:00 TS -26.22 142.21 15 990 bom 0 0 P_____O__PP_P_ SH101976 -26.54 142.24 -1 -25.90 142.10 20 15 990 -26.54 142.24 TC -26.66 142.17 2 -25.79 142.31 TC 30 990 45 45 5 202
1976 SP EA 06:00:00 TS -26.30 142.19 0 0 O_____P__OP_O_ jtwc_sh SH101976 -26.60 142.20 -1 -25.99 142.12 20 15 990 -26.60 142.20 TC -26.73 142.11 2 -25.90 142.30 TC 30 991 6 0
1976 SP EA 09:00:00 TS -26.59 142.21 0 0 P_____P__PP_P_ SH101976 -26.85 142.06 -1 -26.34 142.32 20 15 991 -26.85 142.06 TC -26.92 142.01 2 -26.24 142.45 TC 30 992 6 169
1976 SP EA 11:00:00 TS -26.79 142.28 15 993 bom 0 0 P_____O__PP_P_ SH101976 -27.02 142.01 -1 -26.60 142.50 20 15 993 -27.02 142.01 TC -27.04 141.99 2 -26.48 142.62 TC 30 992 45 45 6 162
1976 SP EA 12:00:00 TS -26.90 142.31 0 0 O_____P__OO_O_ jtwc_sh SH101976 -27.10 142.00 -1 -26.72 142.58 20 15 993 -27.10 142.00 TC -27.10 142.00 2 -26.60 142.70 TC 30 993 6 166
1976 SP EA 15:00:00 TS -27.18 142.39 0 0 P_____P__PP_P_ SH101976 -27.30 141.99 -1 -27.07 142.80 20 15 993 -27.30 141.99 TC -27.34 141.94 2 -26.96 142.85 TC 30 993 6 166
1976 SP EA 18:00:00 TS -27.46 142.47 0 0 O_____P__OP_O_ jtwc_sh SH101976 -27.50 142.10 -1 -27.39 142.97 20 15 994 -27.50 142.10 TC -27.58 141.98 2 -27.30 143.00 TC 30 994 6 168
1976 SP EA 21:00:00 TS -27.74 142.53 0 0 P_____P__PP_P_ SH101976 -27.76 142.29 -1 -27.70 143.11 20 15 995 -27.76 142.29 TC -27.81 142.21 2 -27.61 143.19 TC 27 994 6 158
1976 SP EA 23:00:00 TS -27.91 142.67 15 996 bom 0 0 P_____O__PP_P_ SH101976 -27.92 142.53 -1 -27.90 143.20 20 15 996 -27.92 142.53 TC -27.94 142.51 2 -27.80 143.33 TC 25 994 45 45 7 142
1976 SP EA 1976-01-22 00:00:00 TS -27.99 142.75 0 0 O________OO_O_ jtwc_sh SH101976 -28.00 142.70 -1 20 -28.00 142.70 TC -28.00 142.70 2 -27.90 143.40 TC 25 995 10 112
1976 SP EA 03:00:00 TS -28.17 143.39 0 0 P________PP___ SH101976 -28.18 143.34 -1 20 -28.18 143.34 TC -28.15 143.49 2 TC 15 102
1976 SP EA 06:00:00 TS -28.29 144.37 0 0 O________OP___ jtwc_sh SH101976 -28.30 144.30 -1 20 -28.30 144.30 TC -28.26 144.52 2 20 96
1976 SP EA 09:00:00 TS -28.36 145.62 0 0 P________PP___ SH101976 -28.37 145.56 -1 20 -28.37 145.56 TC -28.34 145.72 2 23 93
1976 SP EA 12:00:00 TS -28.40 147.00 0 O________OO___ jtwc_sh SH101976 -28.40 147.00 -1 -28.40 147.00 TC -28.40 147.00 6 24 92